Time;durP1;ratioP1;P1;durP2;ratioP2;P2;SDS_P1;SDS_P2;PMS_P1;PMS_P2;Temp;Humidity;BMP_temperature;BMP_pressure;BME280_temperature;BME280_humidity;BME280_pressure;Samples;Min_cycle;Max_cycle;Signal;HPM_P1;HPM_P2
2023/02/22 00:01:00;;;;;;;31.70;21.80;;;23.30;99.90;;;;;;5017842;28;20049;-63
2023/02/22 00:03:31;;;;;;;36.75;22.15;;;23.30;99.90;;;;;;5005567;28;20033;-61
2023/02/22 00:06:06;;;;;;;32.97;20.45;;;23.30;99.90;;;;;;5020501;28;20028;-61
2023/02/22 00:08:34;;;;;;;33.40;19.55;;;23.30;99.90;;;;;;5019422;28;20049;-62
2023/02/22 00:11:08;;;;;;;28.98;19.67;;;23.30;99.90;;;;;;5018483;28;20079;-62
2023/02/22 00:13:35;;;;;;;32.95;20.05;;;23.30;99.90;;;;;;5019102;28;20119;-61
2023/02/22 00:16:01;;;;;;;31.63;20.42;;;23.30;99.90;;;;;;5019980;28;20030;-61
2023/02/22 00:18:28;;;;;;;33.35;20.13;;;23.30;99.90;;;;;;5025888;28;20072;-61
2023/02/22 00:20:58;;;;;;;33.67;19.43;;;23.30;99.90;;;;;;5017662;28;20035;-61
2023/02/22 00:23:27;;;;;;;25.33;18.65;;;23.20;99.90;;;;;;5021420;28;20326;-60
2023/02/22 00:25:54;;;;;;;31.35;20.55;;;23.20;99.90;;;;;;5016069;28;20014;-61
2023/02/22 00:28:22;;;;;;;28.37;19.47;;;23.20;99.90;;;;;;5017394;28;20025;-60
2023/02/22 00:30:49;;;;;;;29.00;19.20;;;23.20;99.90;;;;;;5008943;28;20021;-60
2023/02/22 00:33:15;;;;;;;28.75;19.00;;;23.20;99.90;;;;;;5015802;28;20507;-61
2023/02/22 00:35:44;;;;;;;29.13;18.75;;;23.20;99.90;;;;;;5016700;28;20229;-62
2023/02/22 00:38:11;;;;;;;26.48;18.58;;;23.10;99.90;;;;;;5020798;28;20033;-61
2023/02/22 00:40:39;;;;;;;27.25;18.67;;;23.10;99.90;;;;;;5023754;28;20025;-61
2023/02/22 00:43:05;;;;;;;29.60;18.48;;;23.20;99.90;;;;;;5019236;28;20038;-60
2023/02/22 00:45:33;;;;;;;25.17;17.77;;;23.10;99.90;;;;;;5015819;28;20388;-61
2023/02/22 00:48:01;;;;;;;30.27;18.17;;;23.10;99.90;;;;;;5025696;28;20041;-61
2023/02/22 00:50:29;;;;;;;29.65;18.35;;;23.10;99.90;;;;;;5016188;28;20476;-61
2023/02/22 00:52:56;;;;;;;32.35;17.80;;;23.10;99.90;;;;;;5021076;28;20041;-62
2023/02/22 00:55:31;;;;;;;27.98;17.92;;;23.10;99.90;;;;;;5023240;28;20559;-61
2023/02/22 00:57:57;;;;;;;29.90;19.08;;;23.10;99.90;;;;;;5016485;28;20033;-61
2023/02/22 01:00:26;;;;;;;26.73;16.52;;;23.10;99.90;;;;;;5026142;23;20061;-56
2023/02/22 01:02:52;;;;;;;27.35;18.00;;;23.10;99.90;;;;;;5015811;28;20123;-57
2023/02/22 01:05:23;;;;;;;28.23;18.48;;;23.10;99.90;;;;;;5027729;28;20145;-55
2023/02/22 01:07:49;;;;;;;25.25;16.60;;;23.10;99.90;;;;;;5027639;28;20111;-55
2023/02/22 01:10:18;;;;;;;22.80;16.88;;;23.10;99.90;;;;;;5019593;28;20080;-56
2023/02/22 01:12:48;;;;;;;26.27;17.35;;;23.00;99.90;;;;;;5006070;28;20384;-55
2023/02/22 01:15:20;;;;;;;28.30;18.25;;;23.00;99.90;;;;;;5027418;28;20376;-56
2023/02/22 01:17:47;;;;;;;26.67;16.08;;;23.00;99.90;;;;;;5027961;28;20025;-57
2023/02/22 01:20:13;;;;;;;24.63;16.88;;;23.00;99.90;;;;;;5017221;28;20026;-56
2023/02/22 01:22:44;;;;;;;26.38;17.35;;;23.00;99.90;;;;;;5025838;28;20469;-56
2023/02/22 01:25:14;;;;;;;23.17;17.45;;;23.00;99.90;;;;;;5031790;28;20030;-56
2023/02/22 01:27:40;;;;;;;24.83;16.15;;;23.00;99.90;;;;;;5031466;28;20503;-56
2023/02/22 01:30:07;;;;;;;23.98;17.02;;;23.00;99.90;;;;;;5023641;28;20129;-56
2023/02/22 01:32:37;;;;;;;25.00;16.80;;;23.00;99.90;;;;;;5006905;28;20051;-55
2023/02/22 01:35:17;;;;;;;22.27;15.57;;;23.00;99.90;;;;;;5031189;28;20290;-55
2023/02/22 01:37:44;;;;;;;24.10;15.90;;;22.90;99.90;;;;;;5031270;28;20025;-55
2023/02/22 01:40:17;;;;;;;25.53;15.80;;;22.90;99.90;;;;;;5030886;28;20483;-55
2023/02/22 01:42:43;;;;;;;23.15;16.15;;;22.90;99.90;;;;;;5024652;28;20044;-55
2023/02/22 01:45:33;;;;;;;24.17;15.60;;;22.90;99.90;;;;;;5014722;28;20033;-53
2023/02/22 01:48:18;;;;;;;25.20;16.40;;;22.90;99.90;;;;;;5030772;28;20100;-54
2023/02/22 01:51:09;;;;;;;23.85;15.40;;;22.90;99.90;;;;;;5030684;28;20051;-54
2023/02/22 01:54:00;;;;;;;22.33;14.65;;;22.90;99.90;;;;;;4998299;28;20033;-54
2023/02/22 01:56:28;;;;;;;22.45;14.65;;;22.90;99.90;;;;;;5024647;28;20450;-53
2023/02/22 01:59:02;;;;;;;23.17;15.73;;;22.90;99.90;;;;;;5031538;28;20083;-53
2023/02/22 02:01:28;;;;;;;21.83;15.90;;;22.90;99.90;;;;;;5025571;28;20048;-53
2023/02/22 02:03:59;;;;;;;22.75;16.15;;;22.90;99.90;;;;;;5020220;28;20026;-53
2023/02/22 02:06:27;;;;;;;22.45;14.90;;;22.80;99.90;;;;;;5034464;28;20037;-53
2023/02/22 02:09:18;;;;;;;22.13;15.02;;;22.80;99.90;;;;;;5031486;28;20232;-54
2023/02/22 02:11:44;;;;;;;22.08;15.38;;;22.80;99.90;;;;;;5017656;28;20022;-54
2023/02/22 02:14:11;;;;;;;23.40;16.60;;;22.80;99.90;;;;;;5033900;28;20148;-54
2023/02/22 02:16:47;;;;;;;22.20;14.67;;;22.80;99.90;;;;;;5033064;28;20033;-54
2023/02/22 02:19:48;;;;;;;22.63;15.25;;;22.70;99.90;;;;;;5033386;28;20250;-54
2023/02/22 02:22:19;;;;;;;22.48;14.63;;;22.70;99.90;;;;;;5009285;28;20049;-54
2023/02/22 02:24:51;;;;;;;22.15;15.07;;;22.70;99.90;;;;;;5029241;28;20014;-55
2023/02/22 02:27:18;;;;;;;23.17;15.23;;;22.70;99.90;;;;;;5025965;28;20025;-54
2023/02/22 02:30:10;;;;;;;18.33;13.82;;;22.70;99.90;;;;;;5033766;28;20376;-55
2023/02/22 02:32:42;;;;;;;24.42;15.82;;;22.70;99.90;;;;;;5032826;28;20018;-54
2023/02/22 02:35:13;;;;;;;17.98;13.80;;;22.60;99.90;;;;;;5022322;28;20471;-54
2023/02/22 02:38:00;;;;;;;19.85;14.18;;;22.70;99.90;;;;;;5033547;28;20032;-54
2023/02/22 02:40:26;;;;;;;22.80;14.38;;;22.60;99.90;;;;;;5023586;28;20053;-54
2023/02/22 02:43:08;;;;;;;23.60;14.23;;;22.60;99.90;;;;;;5030908;28;20069;-54
2023/02/22 02:45:59;;;;;;;21.45;14.70;;;22.60;99.90;;;;;;5022767;28;20095;-52
2023/02/22 02:48:27;;;;;;;18.85;13.77;;;22.50;99.90;;;;;;5004395;28;20480;-53
2023/02/22 02:50:57;;;;;;;22.60;14.88;;;22.50;99.90;;;;;;5020338;28;20026;-54
2023/02/22 02:53:31;;;;;;;19.05;13.75;;;22.50;99.90;;;;;;5013958;28;20018;-54
2023/02/22 02:55:58;;;;;;;21.83;13.40;;;22.50;99.90;;;;;;5014118;28;20472;-53
2023/02/22 02:58:24;;;;;;;;;;;22.50;99.90;;;;;;5027209;28;20072;-53
2023/02/22 03:00:57;;;;;;;19.52;13.85;;;22.50;99.90;;;;;;5036518;23;19929;-51
2023/02/22 03:03:42;;;;;;;20.90;12.82;;;22.50;99.90;;;;;;5007379;28;20070;-51
2023/02/22 03:06:29;;;;;;;24.58;14.05;;;22.40;99.90;;;;;;5008282;28;20029;-51
2023/02/22 03:09:12;;;;;;;17.13;12.52;;;22.50;99.90;;;;;;5014191;28;20026;-51
2023/02/22 03:12:00;;;;;;;18.30;13.00;;;22.40;99.90;;;;;;5006229;28;20565;-51
2023/02/22 03:15:20;;;;;;;16.98;12.43;;;22.40;99.90;;;;;;4991411;28;20042;-51
2023/02/22 03:18:07;;;;;;;21.33;12.95;;;22.40;99.90;;;;;;5001286;28;20037;-51
2023/02/22 03:20:49;;;;;;;19.85;12.75;;;22.40;99.90;;;;;;5013527;28;20101;-50
2023/02/22 03:23:24;;;;;;;16.20;12.43;;;22.40;99.90;;;;;;5008256;28;20069;-51
2023/02/22 03:26:23;;;;;;;18.25;12.82;;;22.30;99.90;;;;;;4993815;28;20097;-51
2023/02/22 03:28:53;;;;;;;19.63;12.75;;;22.30;99.90;;;;;;5004084;28;20042;-51
2023/02/22 03:31:27;;;;;;;17.17;11.75;;;22.30;99.90;;;;;;5000024;28;20021;-51
2023/02/22 03:33:58;;;;;;;17.52;12.40;;;22.30;99.90;;;;;;5013278;28;20022;-52
2023/02/22 03:36:26;;;;;;;19.23;12.45;;;22.30;99.90;;;;;;5013095;28;20028;-51
2023/02/22 03:38:54;;;;;;;19.20;11.90;;;22.30;99.90;;;;;;5002712;28;20054;-51
2023/02/22 03:41:23;;;;;;;;;;;22.30;99.90;;;;;;5011115;28;20109;-52
2023/02/22 03:44:01;;;;;;;18.08;11.70;;;22.30;99.90;;;;;;5003482;28;20307;-52
2023/02/22 03:46:28;;;;;;;17.73;12.05;;;22.30;99.90;;;;;;4997740;28;20018;-52
2023/02/22 03:49:09;;;;;;;16.08;11.75;;;22.20;99.90;;;;;;5012985;28;20076;-52
2023/02/22 03:51:35;;;;;;;16.92;11.73;;;22.20;99.90;;;;;;4997900;28;20104;-51
2023/02/22 03:54:02;;;;;;;16.75;10.50;;;22.20;99.90;;;;;;5013085;28;20034;-51
2023/02/22 03:56:35;;;;;;;16.23;11.55;;;22.20;99.90;;;;;;5012868;28;20010;-51
2023/02/22 04:01:37;;;;;;;15.70;12.13;;;22.10;99.90;;;;;;5011163;28;20046;-54
2023/02/22 04:04:03;;;;;;;15.30;10.45;;;22.10;99.90;;;;;;5012786;28;20088;-54
2023/02/22 04:06:29;;;;;;;17.17;10.70;;;22.10;99.90;;;;;;4999748;28;20041;-54
2023/02/22 04:08:55;;;;;;;15.75;10.90;;;22.10;99.90;;;;;;5012692;28;20547;-53
2023/02/22 04:11:21;;;;;;;21.85;10.95;;;22.10;99.90;;;;;;5008617;28;20026;-53
2023/02/22 04:13:47;;;;;;;17.38;10.90;;;22.10;99.90;;;;;;5002226;28;20033;-56
2023/02/22 04:16:13;;;;;;;14.75;10.30;;;22.10;99.90;;;;;;5012360;28;20201;-54
2023/02/22 04:18:38;;;;;;;17.02;11.05;;;22.10;99.90;;;;;;5004878;28;20022;-52
2023/02/22 04:21:04;;;;;;;18.90;10.55;;;22.10;99.90;;;;;;5006931;28;20049;-54
2023/02/22 04:23:30;;;;;;;15.57;11.20;;;22.10;99.90;;;;;;5012649;28;20057;-52
2023/02/22 04:25:56;;;;;;;14.10;10.27;;;22.00;99.90;;;;;;5012473;28;20469;-52
2023/02/22 04:28:22;;;;;;;15.50;11.45;;;22.00;99.90;;;;;;5012234;28;20038;-53
2023/02/22 04:30:47;;;;;;;14.35;9.52;;;22.00;99.90;;;;;;5012451;28;20108;-53
2023/02/22 04:33:14;;;;;;;15.27;10.68;;;22.00;99.90;;;;;;5012214;28;20396;-52
2023/02/22 04:35:40;;;;;;;13.52;9.65;;;22.00;99.90;;;;;;5012416;28;20010;-53
2023/02/22 04:38:08;;;;;;;14.65;11.45;;;22.00;99.90;;;;;;5010882;28;20447;-53
2023/02/22 04:40:34;;;;;;;15.57;9.85;;;22.00;99.90;;;;;;5012541;28;20030;-54
2023/02/22 04:43:00;;;;;;;19.35;10.68;;;22.00;99.90;;;;;;5010990;28;20037;-52
2023/02/22 04:45:25;;;;;;;15.15;10.43;;;22.00;99.90;;;;;;5012346;28;20030;-52
2023/02/22 04:47:51;;;;;;;14.73;10.13;;;22.00;99.90;;;;;;5011955;28;20030;-52
2023/02/22 04:50:17;;;;;;;15.35;9.52;;;21.90;99.90;;;;;;5012179;28;20076;-53
2023/02/22 04:52:44;;;;;;;13.52;9.43;;;21.90;99.90;;;;;;5010880;28;20383;-53
2023/02/22 04:55:10;;;;;;;16.73;10.10;;;21.90;99.90;;;;;;5012181;28;20030;-54
2023/02/22 04:57:36;;;;;;;14.93;9.20;;;21.90;99.90;;;;;;5013718;28;20032;-55
2023/02/22 05:00:03;;;;;;;17.17;10.50;;;21.90;99.90;;;;;;5038480;23;20061;-52
2023/02/22 05:02:29;;;;;;;15.40;10.60;;;21.90;99.90;;;;;;5018599;28;20515;-50
2023/02/22 05:04:55;;;;;;;14.98;9.77;;;21.90;99.90;;;;;;5054377;28;20036;-50
2023/02/22 05:07:20;;;;;;;12.65;9.75;;;21.90;99.90;;;;;;5021008;28;20074;-49
2023/02/22 05:09:46;;;;;;;13.25;10.27;;;21.90;99.90;;;;;;5041896;28;20107;-51
2023/02/22 05:12:12;;;;;;;12.07;9.40;;;21.90;99.90;;;;;;5046367;28;20041;-52
2023/02/22 05:14:38;;;;;;;13.60;9.48;;;21.90;99.90;;;;;;5035074;28;20057;-50
2023/02/22 05:17:04;;;;;;;15.43;10.38;;;21.90;99.90;;;;;;5035359;28;20029;-50
2023/02/22 05:19:29;;;;;;;16.70;9.55;;;21.80;99.90;;;;;;5036655;28;20107;-50
2023/02/22 05:21:55;;;;;;;15.10;9.95;;;21.80;99.90;;;;;;5046875;28;20083;-50
2023/02/22 05:24:21;;;;;;;11.68;8.95;;;21.80;99.90;;;;;;5035247;28;20104;-50
2023/02/22 05:26:50;;;;;;;12.30;9.02;;;21.90;99.90;;;;;;5022196;28;20028;-50
2023/02/22 05:29:15;;;;;;;13.02;8.98;;;21.80;99.90;;;;;;5016480;28;20387;-50
2023/02/22 05:31:41;;;;;;;15.98;10.15;;;21.80;99.90;;;;;;5003149;28;20096;-51
2023/02/22 05:34:07;;;;;;;13.40;9.20;;;21.80;99.90;;;;;;5035178;28;20105;-51
2023/02/22 05:36:33;;;;;;;18.90;9.75;;;21.80;99.90;;;;;;5035221;28;20371;-50
2023/02/22 05:38:59;;;;;;;13.10;9.13;;;21.80;99.90;;;;;;5035053;28;20064;-50
2023/02/22 05:41:24;;;;;;;15.82;9.45;;;21.80;99.90;;;;;;5047763;28;20068;-50
2023/02/22 05:43:50;;;;;;;12.15;9.75;;;21.80;99.90;;;;;;5034639;28;20069;-50
2023/02/22 05:46:16;;;;;;;13.20;8.63;;;21.80;99.90;;;;;;5034719;28;20049;-51
2023/02/22 05:48:42;;;;;;;12.50;9.30;;;21.80;99.90;;;;;;5034761;28;20087;-50
2023/02/22 05:51:09;;;;;;;13.88;8.90;;;21.80;99.90;;;;;;5049892;28;20021;-52
2023/02/22 05:53:35;;;;;;;13.02;9.18;;;21.80;99.90;;;;;;5017228;28;20036;-51
2023/02/22 05:56:02;;;;;;;14.15;8.73;;;21.70;99.90;;;;;;5048818;28;20083;-50
2023/02/22 05:58:28;;;;;;;14.77;8.85;;;21.80;99.90;;;;;;5030695;28;20057;-51
2023/02/22 06:00:53;;;;;;;11.82;9.10;;;21.80;99.90;;;;;;5034335;28;20080;-51
2023/02/22 06:03:19;;;;;;;15.25;8.82;;;21.70;99.90;;;;;;5053457;28;20065;-51
2023/02/22 06:05:45;;;;;;;12.77;9.10;;;21.80;99.90;;;;;;5025718;28;20045;-50
2023/02/22 06:08:11;;;;;;;15.50;10.02;;;21.70;99.90;;;;;;5034214;28;20018;-50
2023/02/22 06:10:37;;;;;;;12.57;8.43;;;21.70;99.90;;;;;;5033821;28;20147;-50
2023/02/22 06:13:04;;;;;;;11.10;8.77;;;21.70;99.90;;;;;;5047518;28;20116;-50
2023/02/22 06:15:30;;;;;;;13.27;9.32;;;21.70;99.90;;;;;;5043985;28;20082;-50
2023/02/22 06:17:57;;;;;;;16.48;9.43;;;21.70;99.90;;;;;;5038614;28;20065;-50
2023/02/22 06:20:26;;;;;;;14.27;8.75;;;21.70;99.90;;;;;;5034342;28;20025;-51
2023/02/22 06:22:55;;;;;;;14.68;9.18;;;21.70;99.90;;;;;;5048204;28;20048;-50
2023/02/22 06:25:23;;;;;;;14.27;9.13;;;21.70;99.90;;;;;;5025076;28;20017;-51
2023/02/22 06:27:49;;;;;;;14.90;8.02;;;21.70;99.90;;;;;;5038090;28;20420;-51
2023/02/22 06:30:16;;;;;;;17.00;9.25;;;21.70;99.90;;;;;;5033976;28;20092;-50
2023/02/22 06:32:42;;;;;;;17.90;9.57;;;21.70;99.90;;;;;;5034771;28;20088;-50
2023/02/22 06:35:08;;;;;;;16.30;9.23;;;21.70;99.90;;;;;;5053987;28;20017;-50
2023/02/22 06:37:34;;;;;;;12.27;8.50;;;21.70;99.90;;;;;;5039781;28;20021;-50
2023/02/22 06:40:00;;;;;;;16.40;10.50;;;21.70;99.90;;;;;;5034069;28;20017;-50
2023/02/22 06:42:26;;;;;;;17.60;10.00;;;21.70;99.90;;;;;;5016030;28;20029;-50
2023/02/22 06:44:51;;;;;;;13.82;8.70;;;21.70;99.90;;;;;;5033691;28;20424;-50
2023/02/22 06:47:17;;;;;;;13.45;8.73;;;21.60;99.90;;;;;;5046007;28;20021;-51
2023/02/22 06:49:43;;;;;;;14.45;8.73;;;21.60;99.90;;;;;;5038469;28;20027;-50
2023/02/22 06:52:09;;;;;;;13.57;8.73;;;21.60;99.90;;;;;;5042924;28;20047;-51
2023/02/22 06:54:37;;;;;;;11.65;7.88;;;21.60;99.90;;;;;;5015526;28;20014;-50
2023/02/22 06:57:03;;;;;;;15.65;8.25;;;21.60;99.90;;;;;;5033445;28;20021;-51
2023/02/22 06:59:29;;;;;;;17.05;8.73;;;21.60;99.90;;;;;;5033231;28;20075;-50
2023/02/22 07:01:55;;;;;;;15.35;9.23;;;21.60;99.90;;;;;;5033200;28;20033;-50
2023/02/22 07:04:20;;;;;;;14.30;9.00;;;21.60;99.90;;;;;;5033174;28;20101;-50
2023/02/22 07:06:48;;;;;;;12.23;8.15;;;21.60;99.90;;;;;;5033381;28;20020;-51
2023/02/22 07:09:15;;;;;;;14.13;9.82;;;21.60;99.90;;;;;;5033373;28;20025;-51
2023/02/22 07:11:41;;;;;;;16.23;8.48;;;21.60;99.90;;;;;;5020789;28;20069;-50
2023/02/22 07:14:07;;;;;;;15.00;9.73;;;21.60;99.90;;;;;;5015364;28;20033;-51
2023/02/22 07:16:33;;;;;;;16.67;9.23;;;21.50;99.90;;;;;;5038618;28;20025;-51
2023/02/22 07:18:59;;;;;;;14.40;9.63;;;21.60;99.90;;;;;;5052893;28;20463;-51
2023/02/22 07:21:27;;;;;;;13.63;9.70;;;21.50;99.90;;;;;;5032650;28;20498;-51
2023/02/22 07:23:54;;;;;;;13.88;9.43;;;21.50;99.90;;;;;;5033088;28;20112;-51
2023/02/22 07:26:21;;;;;;;13.98;9.32;;;21.50;99.90;;;;;;5032513;28;20022;-50
2023/02/22 07:28:47;;;;;;;17.45;10.70;;;21.50;99.90;;;;;;5032801;28;20022;-50
2023/02/22 07:31:13;;;;;;;14.18;10.30;;;21.50;99.90;;;;;;5032967;28;20025;-50
2023/02/22 07:33:39;;;;;;;19.75;11.25;;;21.50;99.90;;;;;;5033087;28;20463;-50
2023/02/22 07:36:05;;;;;;;16.42;10.38;;;21.50;99.90;;;;;;5032749;28;20028;-50
2023/02/22 07:38:31;;;;;;;15.55;11.00;;;21.50;99.90;;;;;;5032696;28;20526;-50
2023/02/22 07:40:57;;;;;;;20.25;11.85;;;21.50;99.90;;;;;;5045490;28;20056;-50
2023/02/22 07:43:28;;;;;;;16.05;10.93;;;21.50;99.90;;;;;;5032830;28;20030;-50
2023/02/22 07:45:56;;;;;;;18.13;11.82;;;21.50;99.90;;;;;;5032676;28;20022;-50
2023/02/22 07:48:24;;;;;;;16.58;11.20;;;21.50;99.90;;;;;;5044936;28;20029;-50
2023/02/22 07:50:50;;;;;;;20.60;12.63;;;21.50;99.90;;;;;;5032507;28;20033;-51
2023/02/22 07:53:20;;;;;;;16.98;11.77;;;21.50;99.90;;;;;;5032405;28;20041;-50
2023/02/22 07:55:49;;;;;;;21.13;12.45;;;21.50;99.90;;;;;;5032489;28;20025;-50
2023/02/22 07:58:18;;;;;;;19.00;12.60;;;21.50;99.90;;;;;;5045508;28;20017;-51
2023/02/22 08:00:47;;;;;;;16.75;12.10;;;21.50;99.90;;;;;;5032315;28;20041;-51
2023/02/22 08:03:14;;;;;;;16.85;12.35;;;21.50;99.90;;;;;;5038039;28;20047;-51
2023/02/22 08:05:44;;;;;;;18.50;12.27;;;21.50;99.90;;;;;;5039694;28;20068;-51
2023/02/22 08:08:10;;;;;;;19.42;12.20;;;21.50;99.90;;;;;;5031904;28;20029;-51
2023/02/22 08:10:36;;;;;;;20.42;12.45;;;21.50;99.90;;;;;;5032291;28;20029;-51
2023/02/22 08:13:03;;;;;;;17.75;12.32;;;21.50;99.90;;;;;;5032044;28;20109;-51
2023/02/22 08:15:35;;;;;;;18.27;12.27;;;21.50;99.90;;;;;;5043994;28;20017;-51
2023/02/22 08:18:03;;;;;;;17.20;12.50;;;21.50;99.90;;;;;;5051919;28;20029;-51
2023/02/22 08:20:29;;;;;;;17.52;11.95;;;21.60;99.90;;;;;;5034059;28;20021;-51
2023/02/22 08:22:57;;;;;;;19.52;12.88;;;21.60;99.90;;;;;;5032364;28;20124;-50
2023/02/22 08:25:25;;;;;;;17.48;11.77;;;21.60;99.90;;;;;;5031826;28;20032;-51
2023/02/22 08:27:57;;;;;;;19.60;11.45;;;21.60;99.90;;;;;;5015246;28;20029;-51
2023/02/22 08:30:24;;;;;;;20.63;12.73;;;21.60;99.90;;;;;;5042999;28;20080;-51
2023/02/22 08:32:50;;;;;;;18.25;12.38;;;21.60;99.90;;;;;;5026959;28;20052;-52
2023/02/22 08:35:17;;;;;;;13.90;11.45;;;21.70;99.90;;;;;;5039720;28;20425;-51
2023/02/22 08:37:49;;;;;;;21.83;12.82;;;21.70;99.90;;;;;;5050906;28;20032;-51
2023/02/22 08:40:18;;;;;;;18.58;13.55;;;21.60;99.90;;;;;;5032157;28;20025;-51
2023/02/22 08:42:44;;;;;;;18.88;12.80;;;21.70;99.90;;;;;;5032068;28;20038;-51
2023/02/22 08:45:12;;;;;;;20.40;13.75;;;21.70;99.90;;;;;;5031805;28;20021;-51
2023/02/22 08:47:38;;;;;;;20.65;13.70;;;21.70;99.90;;;;;;5031789;28;20033;-51
2023/02/22 08:50:05;;;;;;;18.30;13.05;;;21.70;99.90;;;;;;5031651;28;20025;-51
2023/02/22 08:52:30;;;;;;;21.67;13.45;;;21.70;99.90;;;;;;5014307;28;20483;-51
2023/02/22 08:54:56;;;;;;;18.63;13.25;;;21.80;99.90;;;;;;5040272;28;20028;-51
2023/02/22 08:57:22;;;;;;;19.73;13.05;;;21.80;99.90;;;;;;5051708;28;20021;-52
2023/02/22 08:59:48;;;;;;;23.27;12.82;;;21.80;99.90;;;;;;5031370;28;20037;-51
2023/02/22 09:02:16;;;;;;;18.25;12.65;;;21.80;99.90;;;;;;5031760;28;20038;-51
2023/02/22 09:04:42;;;;;;;20.75;13.73;;;21.80;99.90;;;;;;5028521;28;20537;-51
2023/02/22 09:07:08;;;;;;;19.70;13.07;;;21.80;99.90;;;;;;5051703;28;20017;-51
2023/02/22 09:09:34;;;;;;;22.02;13.40;;;21.80;99.90;;;;;;5033013;28;20021;-51
2023/02/22 09:12:01;;;;;;;22.55;12.48;;;21.80;99.90;;;;;;5014017;28;20018;-52
2023/02/22 09:14:26;;;;;;;17.48;12.93;;;21.80;99.90;;;;;;5034971;28;20075;-51
2023/02/22 09:16:52;;;;;;;18.73;11.75;;;21.90;99.90;;;;;;5041217;28;20025;-51
2023/02/22 09:19:18;;;;;;;20.65;12.05;;;21.90;99.90;;;;;;5031697;28;20514;-51
2023/02/22 09:21:44;;;;;;;19.35;12.18;;;21.90;99.90;;;;;;5031426;28;20053;-51
2023/02/22 09:24:10;;;;;;;15.98;11.70;;;21.90;99.90;;;;;;5017128;28;20112;-51
2023/02/22 09:26:38;;;;;;;21.10;11.82;;;21.90;99.90;;;;;;5050488;28;20028;-51
2023/02/22 09:29:10;;;;;;;19.70;11.63;;;22.00;99.90;;;;;;5051216;28;20029;-51
2023/02/22 09:31:38;;;;;;;21.63;11.35;;;22.00;99.90;;;;;;5034223;28;20020;-51
2023/02/22 09:34:12;;;;;;;;;;;22.00;99.90;;;;;;5027686;28;20026;-52
2023/02/22 09:36:45;;;;;;;25.60;11.65;;;22.00;99.90;;;;;;5013380;28;19905;-51
2023/02/22 09:39:12;;;;;;;19.58;11.30;;;22.00;99.90;;;;;;5025601;28;20612;-51
2023/02/22 09:41:54;;;;;;;16.63;11.00;;;22.10;99.90;;;;;;5030356;28;20026;-51
2023/02/22 09:44:48;;;;;;;22.23;11.70;;;22.10;99.90;;;;;;5017587;28;20064;-51
2023/02/22 09:47:18;;;;;;;31.17;12.07;;;22.10;99.90;;;;;;5031302;28;20497;-51
2023/02/22 09:49:56;;;;;;;19.42;10.77;;;22.10;99.90;;;;;;5024148;28;20009;-51
2023/02/22 09:52:31;;;;;;;19.88;11.05;;;22.20;99.90;;;;;;5021236;28;20079;-51
2023/02/22 09:55:35;;;;;;;21.80;11.55;;;22.20;99.90;;;;;;5006137;28;20045;-50
2023/02/22 09:58:32;;;;;;;15.65;11.10;;;22.20;99.90;;;;;;4965372;28;20062;-50
2023/02/22 10:01:25;;;;;;;19.08;10.93;;;22.20;99.90;;;;;;5014930;28;20045;-50
2023/02/22 10:04:05;;;;;;;16.38;10.27;;;22.20;99.90;;;;;;5014330;28;20045;-50
2023/02/22 10:06:33;;;;;;;19.50;10.63;;;22.20;99.90;;;;;;5018505;28;20511;-50
2023/02/22 10:09:06;;;;;;;19.67;11.10;;;22.30;99.90;;;;;;5015380;28;20372;-50
2023/02/22 10:11:32;;;;;;;18.77;10.98;;;22.30;99.90;;;;;;5016020;28;20070;-51
2023/02/22 10:14:28;;;;;;;17.38;10.48;;;22.30;99.90;;;;;;5029223;28;20025;-49
2023/02/22 10:17:09;;;;;;;22.27;10.47;;;22.40;99.90;;;;;;5021867;28;20072;-49
2023/02/22 10:19:46;;;;;;;17.13;9.70;;;22.40;99.90;;;;;;5014138;28;20282;-50
2023/02/22 10:22:33;;;;;;;14.75;11.07;;;22.40;99.90;;;;;;5014225;28;20408;-51
2023/02/22 10:25:11;;;;;;;17.63;10.02;;;22.50;99.90;;;;;;5027704;28;20026;-50
2023/02/22 10:28:23;;;;;;;28.45;10.88;;;22.50;99.90;;;;;;5020232;28;20053;-51
2023/02/22 10:30:53;;;;;;;27.75;9.73;;;22.50;99.90;;;;;;5007396;28;20033;-49
2023/02/22 10:33:25;;;;;;;18.52;9.88;;;22.60;99.90;;;;;;5022825;28;20033;-50
2023/02/22 10:35:54;;;;;;;22.45;11.15;;;22.60;99.90;;;;;;5023691;28;20022;-50
2023/02/22 10:38:28;;;;;;;32.65;10.45;;;22.70;99.90;;;;;;5027509;28;20026;-49
2023/02/22 10:41:25;;;;;;;52.53;11.32;;;22.70;99.90;;;;;;5014426;28;20029;-49
2023/02/22 10:43:51;;;;;;;40.20;11.57;;;22.70;99.90;;;;;;5002126;28;20033;-49
2023/02/22 10:46:21;;;;;;;39.08;10.95;;;22.80;99.90;;;;;;5018442;28;20056;-49
2023/02/22 10:48:50;;;;;;;44.75;10.55;;;22.80;99.90;;;;;;5014074;28;20028;-50
2023/02/22 10:51:16;;;;;;;47.40;11.95;;;22.80;99.90;;;;;;5022734;28;20061;-51
2023/02/22 10:53:42;;;;;;;35.42;9.82;;;22.90;99.90;;;;;;5022774;28;20124;-49
2023/02/22 10:56:17;;;;;;;39.03;9.20;;;22.90;99.90;;;;;;5025049;28;20427;-49
2023/02/22 10:58:58;;;;;;;27.52;9.77;;;23.00;99.90;;;;;;5021875;28;20038;-49
2023/02/22 11:01:31;;;;;;;33.60;10.25;;;23.00;99.90;;;;;;5024337;28;20049;-49
2023/02/22 11:04:16;;;;;;;34.08;9.77;;;23.00;99.90;;;;;;5026157;28;20129;-49
2023/02/22 11:07:06;;;;;;;38.05;10.60;;;23.10;99.90;;;;;;5028021;28;20071;-49
2023/02/22 11:09:54;;;;;;;25.98;9.63;;;23.10;99.90;;;;;;5028197;28;20041;-48
2023/02/22 11:12:28;;;;;;;26.25;8.93;;;23.10;99.90;;;;;;5028475;28;20017;-49
2023/02/22 11:14:55;;;;;;;32.67;9.65;;;23.10;99.90;;;;;;5021689;28;20108;-49
2023/02/22 11:17:29;;;;;;;36.58;10.65;;;23.20;99.90;;;;;;5021918;28;20026;-49
2023/02/22 11:19:55;;;;;;;27.95;9.55;;;23.20;99.90;;;;;;5025053;28;20076;-49
2023/02/22 11:22:40;;;;;;;26.65;9.93;;;23.20;99.90;;;;;;5027551;28;20041;-49
2023/02/22 11:25:07;;;;;;;33.13;10.80;;;23.30;99.90;;;;;;5021709;28;20116;-48
2023/02/22 11:27:38;;;;;;;30.30;9.13;;;23.30;99.90;;;;;;5028808;28;20055;-50
2023/02/22 11:30:29;;;;;;;25.58;9.80;;;23.30;99.90;;;;;;5026911;28;20089;-50
2023/02/22 11:33:05;;;;;;;34.08;10.80;;;23.30;99.90;;;;;;5024295;28;20079;-51
2023/02/22 11:35:38;;;;;;;40.75;11.52;;;23.40;99.90;;;;;;5023026;28;20517;-51
2023/02/22 11:38:37;;;;;;;32.70;10.05;;;23.40;99.90;;;;;;5021133;28;20068;-50
2023/02/22 11:41:17;;;;;;;31.50;8.75;;;23.40;99.90;;;;;;4989902;28;20132;-50
2023/02/22 11:43:48;;;;;;;30.35;9.98;;;23.40;99.90;;;;;;5016158;28;20543;-50
2023/02/22 11:46:18;;;;;;;36.63;13.57;;;23.50;99.90;;;;;;5023331;28;20077;-50
2023/02/22 11:49:09;;;;;;;29.10;9.60;;;23.50;99.90;;;;;;5020257;28;20036;-50
2023/02/22 11:52:06;;;;;;;28.98;8.73;;;23.50;99.90;;;;;;5024238;28;20382;-50
2023/02/22 11:54:51;;;;;;;32.20;9.90;;;23.60;99.90;;;;;;5023355;28;20053;-50
2023/02/22 11:57:35;;;;;;;41.15;9.65;;;23.60;99.90;;;;;;5026714;28;20088;-50
2023/02/22 12:00:23;;;;;;;27.35;9.98;;;23.60;99.90;;;;;;5026225;28;20585;-50
2023/02/22 12:03:07;;;;;;;23.63;8.52;;;23.60;99.90;;;;;;5028195;28;20398;-50
2023/02/22 12:05:43;;;;;;;31.75;9.80;;;23.70;99.90;;;;;;5026453;28;20026;-49
2023/02/22 12:08:33;;;;;;;30.83;9.98;;;23.70;99.90;;;;;;5028567;28;20058;-49
2023/02/22 12:11:19;;;;;;;43.72;10.20;;;23.70;99.90;;;;;;5026718;28;20468;-49
2023/02/22 12:13:58;;;;;;;37.38;10.15;;;23.70;99.90;;;;;;5022568;28;20021;-49
2023/02/22 12:16:48;;;;;;;38.92;10.80;;;23.80;99.90;;;;;;5020233;28;20018;-49
2023/02/22 12:19:29;;;;;;;35.47;10.93;;;23.80;99.90;;;;;;5030966;28;20053;-49
2023/02/22 12:22:07;;;;;;;46.28;9.25;;;23.80;99.90;;;;;;5021257;28;20026;-50
2023/02/22 12:24:41;;;;;;;;;;;23.90;99.90;;;;;;5030231;28;20033;-51
2023/02/22 12:27:28;;;;;;;37.15;10.18;;;23.90;99.90;;;;;;5028266;28;19936;-51
2023/02/22 12:30:05;;;;;;;38.15;8.93;;;23.90;99.90;;;;;;5029015;28;20096;-51
2023/02/22 12:32:31;;;;;;;;;;;23.90;99.90;;;;;;5024253;28;20113;-50
2023/02/22 12:35:04;;;;;;;44.13;8.63;;;23.90;99.90;;;;;;5032472;28;19995;-50
2023/02/22 12:37:45;;;;;;;43.17;9.27;;;24.00;99.90;;;;;;5027851;28;20021;-50
2023/02/22 12:40:22;;;;;;;40.47;9.38;;;23.90;99.90;;;;;;5027995;28;20034;-50
2023/02/22 12:43:16;;;;;;;47.30;12.00;;;23.90;99.90;;;;;;5029277;28;20024;-50
2023/02/22 12:46:03;;;;;;;39.00;9.70;;;23.90;99.90;;;;;;5026600;28;20026;-49
2023/02/22 12:48:34;;;;;;;35.33;8.77;;;24.00;99.90;;;;;;5013911;28;20018;-49
2023/02/22 12:51:15;;;;;;;32.83;9.35;;;24.00;99.90;;;;;;5027761;28;20022;-49
2023/02/22 12:53:49;;;;;;;44.75;10.15;;;24.00;99.90;;;;;;5025723;28;20025;-49
2023/02/22 12:56:27;;;;;;;41.60;10.88;;;24.00;99.90;;;;;;5020257;28;20117;-49